Portada
METAR-TAF:

METAR-TAF

Aeroports :

Takamatsu, Japó

latitud: 34-13N, longitud: 134-01E, altitud: 185 m

Observació

L'informe es va fer fa 1 hora i 6 minuts, a les 00:00 UTC
Vent 3 kt amb direcció variable
Temperatura 29°C
Humitat 66%
Pressió 1008 hPa
Visibilitat 10 km o més
Escasses núvols a una alçada de 3000 ft
Núvols disperses

METAR: RJOT 180000Z VRB03KT 9999 FEW030 SCT/// 29/22 Q1008

Hora: 10:06 (01:06 UTC)

Pronòstic

L'informe es va fer fa 1 hora i 55 minuts, a les 23:11 UTC
Pronòstic vàlid del 18 a les 00 UTC al 19 a les 06 UTC
Vent 4 kt del Nord-Oest
Visibilitat 10 km o més
Escasses núvols a una alçada de 3000 ft
Evolucionant progressivament
l' 18 a les 09 UTC al 18 a les 11 UTC
Vent 5 kt del Sud/Sud-Est

TAF: RJOT 172311Z 1800/1906 31004KT 9999 FEW030 BECMG 1809/1811 15005KT

Observacions i pronòstics meteorològics de més de 4000 aeroports (METAR i TAF).

Les estacions disponibles són els punts grocs i vermells al mapa.

Posi el ratolí al punt desitjat per veure el nom de l'estació.

Feu clic per veure les observacions i els pronòstics meteorològics.

Per canviar el mapa: feu clic els botons verds amb una creu de color negre per apropar; al botó verd amb un guió per allunyar la imatge; o en les fletxes verdes per a mapes adjacents.


METAR-TAF: